Weather at Launceston Airport

Public forecast

Using degrees Celsius for public forecast. Weather courtesy of forecast.io.

Current aviation weather report (METAR) for Launceston Airport

2022/12/04 05:30 (retrieved 19 minutes ago)

YMLT 040530Z AUTO 32014KT 9999 // NCD 27/11 Q1006 RF000/0000

Closest aviation forecast (TAF) to Launceston Airport

Forecast is more than 6 hours old.

Closest forecast is Nouméa Magenta Airport, 1,510.7 nm (2,797.8 km) NE.

2022/12/03 18:00 (retrieved 12 hours ago)

TAF NWWM 031700Z 0318/0418 VRB02KT 9999 SCT012 SCT022 TEMPO 0318/0409 4000 SHRA BKN012 SCT025CB PROB30 TEMPO 0400/0406 2500 TSRA BKN012 SCT020CB